Time;durP1;ratioP1;P1;durP2;ratioP2;P2;SDS_P1;SDS_P2;PMS_P1;PMS_P2;Temp;Humidity;BMP_temperature;BMP_pressure;BME280_temperature;BME280_humidity;BME280_pressure;Samples;Min_cycle;Max_cycle;Signal;HPM_P1;HPM_P2
2022/10/03 00:00:21;;;;;;;8.40;2.38;;;11.40;99.90;;;;;;5041603;28;20029;-35
2022/10/03 00:03:31;;;;;;;4.85;2.05;;;11.30;99.90;;;;;;5046662;28;20029;-36
2022/10/03 00:06:14;;;;;;;9.93;2.75;;;11.30;99.90;;;;;;5047543;28;20055;-36
2022/10/03 00:09:17;;;;;;;5.20;2.10;;;11.20;99.90;;;;;;5046865;28;20032;-37
2022/10/03 00:12:07;;;;;;;5.43;2.05;;;11.20;99.90;;;;;;5046233;28;20033;-35
2022/10/03 00:14:43;;;;;;;4.07;1.83;;;11.20;99.90;;;;;;5046654;28;20068;-35
2022/10/03 00:17:21;;;;;;;6.25;2.08;;;11.20;99.90;;;;;;5046097;28;20456;-35
2022/10/03 00:19:54;;;;;;;7.00;2.10;;;11.20;99.90;;;;;;5046380;28;20388;-35
2022/10/03 00:22:50;;;;;;;5.30;2.33;;;11.20;99.90;;;;;;5046212;28;20029;-36
2022/10/03 00:25:24;;;;;;;6.00;2.20;;;11.30;99.90;;;;;;5045790;28;20384;-35
2022/10/03 00:27:53;;;;;;;7.35;3.33;;;11.30;99.90;;;;;;5046429;28;20064;-35
2022/10/03 00:30:20;;;;;;;6.85;2.20;;;11.30;99.90;;;;;;5045984;28;20468;-35
2022/10/03 00:33:07;;;;;;;6.38;2.50;;;11.30;99.90;;;;;;5045973;28;20093;-35
2022/10/03 00:35:48;;;;;;;4.88;2.10;;;11.20;99.90;;;;;;5045935;28;20052;-35
2022/10/03 00:38:40;;;;;;;5.80;2.25;;;11.20;99.90;;;;;;5046000;28;20025;-37
2022/10/03 00:41:14;;;;;;;6.32;2.45;;;11.20;99.90;;;;;;5046267;28;20029;-36
2022/10/03 00:44:05;;;;;;;6.13;2.50;;;11.20;99.90;;;;;;5046427;28;20404;-35
2022/10/03 00:47:03;;;;;;;6.85;2.10;;;11.20;99.90;;;;;;5038941;28;20504;-37
2022/10/03 00:49:41;;;;;;;5.20;2.40;;;11.20;99.90;;;;;;5044823;28;20383;-34
2022/10/03 00:52:25;;;;;;;5.28;2.50;;;11.20;99.90;;;;;;5046242;28;20056;-35
2022/10/03 00:54:56;;;;;;;8.15;2.53;;;11.20;99.90;;;;;;5045206;28;20040;-35
2022/10/03 00:57:36;;;;;;;5.50;2.40;;;11.10;99.90;;;;;;5045894;28;20286;-35
2022/10/03 01:00:06;;;;;;;3.97;2.30;;;11.20;99.90;;;;;;5044431;28;20032;-36
2022/10/03 01:02:38;;;;;;;8.10;2.50;;;11.10;99.90;;;;;;5045534;28;20029;-37
2022/10/03 01:05:22;;;;;;;6.82;2.58;;;11.10;99.90;;;;;;5045692;28;20053;-35
2022/10/03 01:08:22;;;;;;;6.40;2.40;;;11.10;99.90;;;;;;5045777;28;20033;-36
2022/10/03 01:11:04;;;;;;;6.10;2.40;;;11.00;99.90;;;;;;5045999;28;20468;-37
2022/10/03 01:13:47;;;;;;;6.93;2.70;;;11.00;99.90;;;;;;5045076;28;20051;-36
2022/10/03 01:16:20;;;;;;;6.75;2.60;;;11.00;99.90;;;;;;5034811;28;20033;-35
2022/10/03 01:19:23;;;;;;;6.13;2.53;;;11.00;99.90;;;;;;5046100;28;20141;-34
2022/10/03 01:22:26;;;;;;;5.85;2.28;;;10.90;99.90;;;;;;5039023;28;20028;-38
2022/10/03 01:25:05;;;;;;;8.27;2.85;;;10.80;99.90;;;;;;5045302;28;20110;-37
2022/10/03 01:30:56;;;;;;;10.63;3.00;;;10.80;99.90;;;;;;5045896;28;20048;-36
2022/10/03 01:33:36;;;;;;;7.72;2.83;;;10.80;99.90;;;;;;5045108;28;20032;-35
2022/10/03 01:36:02;;;;;;;5.05;2.90;;;10.80;99.90;;;;;;5044076;28;20098;-35
2022/10/03 01:38:42;;;;;;;6.15;2.65;;;10.70;99.90;;;;;;5045125;28;20029;-37
2022/10/03 01:41:10;;;;;;;8.52;3.13;;;10.70;99.90;;;;;;5044439;28;20025;-35
2022/10/03 01:44:01;;;;;;;7.25;2.65;;;10.70;99.90;;;;;;5044484;28;20025;-36
2022/10/03 01:46:48;;;;;;;5.40;2.70;;;10.70;99.90;;;;;;5044743;28;20025;-34
2022/10/03 01:49:32;;;;;;;6.93;3.38;;;10.70;99.90;;;;;;5044367;28;20166;-36
2022/10/03 01:52:13;;;;;;;5.90;2.88;;;10.70;99.90;;;;;;5042063;28;20381;-36
2022/10/03 01:54:41;;;;;;;7.40;3.28;;;10.70;99.90;;;;;;5044863;28;20538;-36
2022/10/03 01:57:34;;;;;;;6.38;3.35;;;10.70;99.90;;;;;;5043697;28;20029;-36
2022/10/03 02:00:19;;;;;;;7.10;3.30;;;10.70;99.90;;;;;;5041783;28;20503;-35
2022/10/03 02:03:06;;;;;;;7.18;3.10;;;10.70;99.90;;;;;;5034352;28;20080;-36
2022/10/03 02:05:56;;;;;;;5.55;3.30;;;10.70;99.90;;;;;;5043551;28;20033;-38
2022/10/03 02:08:30;;;;;;;5.72;3.20;;;10.70;99.90;;;;;;5044139;28;20029;-35
2022/10/03 02:11:08;;;;;;;8.43;3.25;;;10.60;99.90;;;;;;5044206;28;20121;-35
2022/10/03 02:13:41;;;;;;;5.45;3.00;;;10.60;99.90;;;;;;5044129;28;20024;-35
2022/10/03 02:16:28;;;;;;;4.75;2.83;;;10.60;99.90;;;;;;5043084;28;20218;-36
2022/10/03 02:19:25;;;;;;;7.85;2.88;;;10.50;99.90;;;;;;5044066;28;20361;-35
2022/10/03 02:21:56;;;;;;;8.02;3.40;;;10.50;99.90;;;;;;5041311;28;20286;-35
2022/10/03 02:24:54;;;;;;;8.05;3.90;;;10.50;99.90;;;;;;5043133;28;20025;-36
2022/10/03 02:28:09;;;;;;;9.85;4.00;;;10.40;99.90;;;;;;5043429;28;20035;-35
2022/10/03 02:30:50;;;;;;;8.20;3.65;;;10.40;99.90;;;;;;5024386;28;20446;-36
2022/10/03 02:33:15;;;;;;;6.07;3.60;;;10.40;99.90;;;;;;5039889;28;20451;-35
2022/10/03 02:36:18;;;;;;;6.35;3.80;;;10.40;99.90;;;;;;5044376;28;20481;-35
2022/10/03 02:38:44;;;;;;;6.07;3.35;;;10.30;99.90;;;;;;5043881;28;20044;-35
2022/10/03 02:41:38;;;;;;;6.78;3.47;;;10.30;99.90;;;;;;5043649;28;20025;-34
2022/10/03 02:44:22;;;;;;;6.97;3.10;;;10.30;99.90;;;;;;5033741;28;20524;-35
2022/10/03 02:47:02;;;;;;;6.95;3.88;;;10.30;99.90;;;;;;5043504;28;20617;-36
2022/10/03 02:50:22;;;;;;;8.32;3.38;;;10.20;99.90;;;;;;5043546;28;20790;-36
2022/10/03 02:53:12;;;;;;;10.10;3.80;;;10.20;99.90;;;;;;5043022;28;20480;-36
2022/10/03 02:56:09;;;;;;;7.18;3.53;;;10.20;99.90;;;;;;5044626;28;20449;-35
2022/10/03 02:58:55;;;;;;;7.38;3.83;;;10.20;99.90;;;;;;5044311;28;20277;-35
2022/10/03 03:02:00;;;;;;;9.07;3.45;;;10.30;99.90;;;;;;5022844;28;20399;-35
2022/10/03 03:04:43;;;;;;;6.38;3.22;;;10.30;99.90;;;;;;5041276;28;20413;-35
2022/10/03 03:07:37;;;;;;;6.82;3.20;;;10.30;99.90;;;;;;5042764;28;20458;-36
2022/10/03 03:10:15;;;;;;;6.13;3.40;;;10.30;99.90;;;;;;5043676;28;20553;-37
2022/10/03 03:13:10;;;;;;;5.20;3.10;;;10.30;99.90;;;;;;5044144;28;20029;-35
2022/10/03 03:16:08;;;;;;;5.55;2.90;;;10.30;99.90;;;;;;5042950;28;20044;-36
2022/10/03 03:18:40;;;;;;;4.38;3.03;;;10.30;99.90;;;;;;5039368;28;20128;-34
2022/10/03 03:21:12;;;;;;;6.32;3.00;;;10.30;99.90;;;;;;5046691;28;20102;-36
2022/10/03 03:24:02;;;;;;;5.72;2.88;;;10.30;99.90;;;;;;5047374;28;20025;-37
2022/10/03 03:26:36;;;;;;;10.35;2.90;;;10.30;99.90;;;;;;5047748;28;20121;-37
2022/10/03 03:29:05;;;;;;;4.40;2.30;;;10.30;99.90;;;;;;5047471;28;20033;-38
2022/10/03 03:31:56;;;;;;;3.10;2.58;;;10.20;99.90;;;;;;5047254;28;20074;-35
2022/10/03 03:34:29;;;;;;;3.75;2.30;;;10.20;99.90;;;;;;5035373;28;20211;-35
2022/10/03 03:37:06;;;;;;;3.75;2.33;;;10.20;99.90;;;;;;5047723;28;20459;-35
2022/10/03 03:39:43;;;;;;;5.22;2.75;;;10.20;99.90;;;;;;5046989;28;20147;-35
2022/10/03 03:42:22;;;;;;;3.35;2.42;;;10.10;99.90;;;;;;5045936;28;20086;-34
2022/10/03 03:45:09;;;;;;;3.03;2.42;;;10.10;99.90;;;;;;5047096;28;20481;-36
2022/10/03 03:47:59;;;;;;;4.43;2.80;;;10.10;99.90;;;;;;5027972;28;20032;-36
2022/10/03 03:50:55;;;;;;;2.42;2.22;;;10.10;99.90;;;;;;5044837;28;20029;-35
2022/10/03 03:53:48;;;;;;;4.95;2.70;;;10.10;99.90;;;;;;5046796;28;20040;-36
2022/10/03 03:56:28;;;;;;;3.28;2.28;;;10.00;99.90;;;;;;5044227;28;20633;-35
2022/10/03 03:59:12;;;;;;;3.28;2.58;;;10.00;99.90;;;;;;5047245;28;20123;-36
2022/10/03 04:01:58;;;;;;;4.18;2.28;;;10.00;99.90;;;;;;5046927;28;20040;-35
2022/10/03 04:04:44;;;;;;;4.03;2.53;;;10.00;99.90;;;;;;5045792;28;20131;-35
2022/10/03 04:07:19;;;;;;;3.63;2.40;;;10.00;99.90;;;;;;5046293;28;20025;-36
2022/10/03 04:10:16;;;;;;;4.80;2.55;;;9.90;99.90;;;;;;5046046;28;20024;-36
2022/10/03 04:12:44;;;;;;;4.88;2.53;;;9.90;99.90;;;;;;5046997;28;20136;-37
2022/10/03 04:15:19;;;;;;;3.22;2.38;;;9.90;99.90;;;;;;5046025;28;20555;-36
2022/10/03 04:21:11;;;;;;;3.42;2.15;;;9.80;99.90;;;;;;5046934;28;20086;-36
2022/10/03 04:23:46;;;;;;;3.97;2.15;;;9.80;99.90;;;;;;5047057;28;20029;-35
2022/10/03 04:26:17;;;;;;;2.40;2.20;;;9.80;99.90;;;;;;5045909;28;20255;-35
2022/10/03 04:29:17;;;;;;;4.18;1.98;;;9.70;99.90;;;;;;5045785;28;20473;-36
2022/10/03 04:32:20;;;;;;;3.63;2.58;;;9.70;99.90;;;;;;5045190;28;20036;-36
2022/10/03 04:35:06;;;;;;;3.42;2.00;;;9.70;99.90;;;;;;5046290;28;20375;-38
2022/10/03 04:38:04;;;;;;;6.05;2.45;;;9.70;99.90;;;;;;5044277;28;20029;-37
2022/10/03 04:40:46;;;;;;;4.03;2.28;;;9.70;99.90;;;;;;5046064;28;20094;-35
2022/10/03 04:43:23;;;;;;;3.95;2.30;;;9.60;99.90;;;;;;5036240;28;20033;-36
2022/10/03 04:46:13;;;;;;;4.85;2.33;;;9.60;99.90;;;;;;5045638;28;20437;-35
2022/10/03 04:48:49;;;;;;;5.00;2.40;;;9.60;99.90;;;;;;5046416;28;20021;-36
2022/10/03 04:51:35;;;;;;;4.07;2.30;;;9.60;99.90;;;;;;5046682;28;20109;-34
2022/10/03 04:54:26;;;;;;;6.22;2.20;;;9.60;99.90;;;;;;5045800;28;20153;-35
2022/10/03 04:57:00;;;;;;;3.50;2.17;;;9.60;99.90;;;;;;5046104;28;20048;-36
2022/10/03 04:59:35;;;;;;;5.93;2.75;;;9.60;99.90;;;;;;5045041;28;20041;-35
2022/10/03 05:02:13;;;;;;;5.15;2.47;;;9.60;99.90;;;;;;5046479;28;20401;-37
2022/10/03 05:04:54;;;;;;;4.70;2.30;;;9.60;99.90;;;;;;5046570;28;20497;-35
2022/10/03 05:07:24;;;;;;;4.82;3.15;;;9.60;99.90;;;;;;5044933;28;20029;-34
2022/10/03 05:10:15;;;;;;;3.78;2.22;;;9.50;99.90;;;;;;5046051;28;20033;-35
2022/10/03 05:12:52;;;;;;;5.45;2.55;;;9.60;99.90;;;;;;5046249;28;20031;-35
2022/10/03 05:15:33;;;;;;;3.40;2.38;;;9.60;99.90;;;;;;5044787;28;20044;-36
2022/10/03 05:18:21;;;;;;;5.50;2.10;;;9.50;99.90;;;;;;5045687;28;20127;-35
2022/10/03 05:21:04;;;;;;;4.68;2.55;;;9.50;99.90;;;;;;5025413;28;20033;-35
2022/10/03 05:24:01;;;;;;;4.28;2.25;;;9.50;99.90;;;;;;5043721;28;20394;-35
2022/10/03 05:26:48;;;;;;;3.17;2.35;;;9.50;99.90;;;;;;5045287;28;20399;-36
2022/10/03 05:29:40;;;;;;;6.50;2.60;;;9.50;99.90;;;;;;5041846;28;20104;-35
2022/10/03 05:32:29;;;;;;;4.57;2.55;;;9.50;99.90;;;;;;5045469;28;20063;-35
2022/10/03 05:35:19;;;;;;;3.15;2.60;;;9.50;99.90;;;;;;5035313;28;20080;-35
2022/10/03 05:38:09;;;;;;;4.78;2.45;;;9.50;99.90;;;;;;5044105;28;20029;-35
2022/10/03 05:40:37;;;;;;;5.97;3.20;;;9.50;99.90;;;;;;5042288;28;20116;-36
2022/10/03 05:43:46;;;;;;;6.30;3.50;;;9.40;99.90;;;;;;5042884;28;20304;-34
2022/10/03 05:46:21;;;;;;;21.48;2.85;;;9.50;99.90;;;;;;5034790;28;20325;-35
2022/10/03 05:48:54;;;;;;;16.17;2.50;;;9.50;99.90;;;;;;5043194;28;20337;-36
2022/10/03 05:51:37;;;;;;;7.57;1.98;;;9.50;99.90;;;;;;5044164;28;20025;-36
2022/10/03 05:54:22;;;;;;;14.48;2.28;;;9.50;99.90;;;;;;5044389;28;20037;-36
2022/10/03 05:56:50;;;;;;;6.20;2.00;;;9.40;99.90;;;;;;5023189;28;20388;-36
2022/10/03 05:59:31;;;;;;;3.83;2.30;;;9.40;99.90;;;;;;5037750;28;20518;-35
2022/10/03 06:02:17;;;;;;;9.23;2.35;;;9.40;99.90;;;;;;5045172;28;20112;-36
2022/10/03 06:05:14;;;;;;;3.60;2.10;;;9.40;99.90;;;;;;5043619;28;20053;-35
2022/10/03 06:08:04;;;;;;;6.78;1.90;;;9.40;99.90;;;;;;5043416;28;20102;-35
2022/10/03 06:10:38;;;;;;;7.47;2.05;;;9.40;99.90;;;;;;5042644;28;20033;-36
2022/10/03 06:13:11;;;;;;;2.15;1.90;;;9.40;99.90;;;;;;5043684;28;20048;-35
2022/10/03 06:15:53;;;;;;;3.42;2.13;;;9.40;99.90;;;;;;5043789;28;20040;-36
2022/10/03 06:18:46;;;;;;;14.38;2.17;;;9.40;99.90;;;;;;5041844;28;20021;-35
2022/10/03 06:21:25;;;;;;;6.28;2.00;;;9.50;99.90;;;;;;5042842;28;20501;-35
2022/10/03 06:24:24;;;;;;;17.73;2.00;;;9.50;99.90;;;;;;5043351;28;20257;-35
2022/10/03 06:27:28;;;;;;;13.50;2.00;;;9.50;99.90;;;;;;5036157;28;20496;-36
2022/10/03 06:30:11;;;;;;;17.98;2.08;;;9.50;99.90;;;;;;5043883;28;20028;-35
2022/10/03 06:32:55;;;;;;;;;;;9.50;99.90;;;;;;5043910;28;20066;-35
2022/10/03 06:35:59;;;;;;;8.40;2.10;;;9.50;99.90;;;;;;5043706;28;19917;-36
2022/10/03 06:38:49;;;;;;;8.70;1.70;;;9.50;99.90;;;;;;5019811;28;20026;-36
2022/10/03 06:41:53;;;;;;;3.85;1.80;;;9.50;99.90;;;;;;5021216;28;21016;-37
2022/10/03 06:44:31;;;;;;;1.92;1.83;;;9.50;99.90;;;;;;5025238;28;20038;-37
2022/10/03 06:47:35;;;;;;;2.28;2.08;;;9.60;99.90;;;;;;5043912;28;20029;-35
2022/10/03 06:50:35;;;;;;;4.45;2.20;;;9.60;99.90;;;;;;5044257;28;20049;-36
2022/10/03 06:53:29;;;;;;;11.48;2.13;;;9.60;99.90;;;;;;5043647;28;20029;-37
2022/10/03 06:56:23;;;;;;;4.47;2.00;;;9.60;99.90;;;;;;5044800;28;20094;-35
2022/10/03 06:59:18;;;;;;;2.08;1.80;;;9.60;99.90;;;;;;5043243;28;20040;-36
2022/10/03 07:01:50;;;;;;;2.10;1.90;;;9.60;99.90;;;;;;5043684;28;20475;-36
2022/10/03 07:04:38;;;;;;;;;;;9.60;99.90;;;;;;5043941;28;20088;-35
2022/10/03 07:07:33;;;;;;;1.67;1.50;;;9.70;99.90;;;;;;5042890;28;19927;-36
2022/10/03 07:10:40;;;;;;;4.70;1.98;;;9.70;99.90;;;;;;5043793;28;20108;-35
2022/10/03 07:13:27;;;;;;;6.78;1.92;;;9.70;99.90;;;;;;5043013;28;20425;-37
2022/10/03 07:16:28;;;;;;;4.18;1.90;;;9.80;99.90;;;;;;5043628;28;20040;-37
2022/10/03 07:19:20;;;;;;;15.15;2.05;;;9.80;99.90;;;;;;5031833;28;20044;-36
2022/10/03 07:22:07;;;;;;;5.78;2.45;;;9.90;99.90;;;;;;5034836;28;20072;-38
2022/10/03 07:24:43;;;;;;;5.20;2.30;;;9.90;99.90;;;;;;5044446;28;20033;-38
2022/10/03 07:27:40;;;;;;;3.13;2.67;;;9.90;99.90;;;;;;5042122;28;20028;-36
2022/10/03 07:30:19;;;;;;;3.35;2.40;;;9.90;99.90;;;;;;5023747;28;20326;-36
2022/10/03 07:33:32;;;;;;;3.50;2.65;;;10.00;99.90;;;;;;5041118;28;20032;-37
2022/10/03 07:39:17;;;;;;;5.25;2.30;;;10.10;99.90;;;;;;5035751;28;20107;-36
2022/10/03 07:41:59;;;;;;;4.35;2.40;;;10.10;99.90;;;;;;5042932;28;20021;-37
2022/10/03 07:44:41;;;;;;;4.25;2.40;;;10.20;99.90;;;;;;5043304;28;20283;-35
2022/10/03 07:47:34;;;;;;;2.50;2.30;;;10.20;99.90;;;;;;5042744;28;20033;-36
2022/10/03 07:50:18;;;;;;;5.60;2.90;;;10.30;99.90;;;;;;5042912;28;20025;-36
2022/10/03 07:53:15;;;;;;;3.22;2.60;;;10.30;99.90;;;;;;5043267;28;20056;-35
2022/10/03 07:56:06;;;;;;;3.15;2.20;;;10.40;99.90;;;;;;5042645;28;20041;-36
2022/10/03 07:59:09;;;;;;;5.75;2.65;;;10.50;99.90;;;;;;5042101;28;20124;-36
2022/10/03 08:01:55;;;;;;;4.82;2.58;;;10.50;99.90;;;;;;5043168;28;20799;-36
2022/10/03 08:04:36;;;;;;;4.85;3.05;;;10.60;99.90;;;;;;5043687;28;20452;-36
2022/10/03 08:07:20;;;;;;;5.38;3.10;;;10.80;99.90;;;;;;5046767;28;20026;-37
2022/10/03 08:10:16;;;;;;;5.20;3.40;;;10.90;99.90;;;;;;5046392;28;20152;-37
2022/10/03 08:13:19;;;;;;;5.90;3.67;;;11.00;99.90;;;;;;5047502;28;20111;-37
2022/10/03 08:17:52;;;;;;;5.32;3.08;;;11.20;99.90;;;;;;5002232;28;1217260;-35
2022/10/03 08:20:28;;;;;;;4.05;3.20;;;11.30;99.90;;;;;;5011414;28;20133;-36
2022/10/03 08:23:11;;;;;;;5.88;3.40;;;11.40;99.90;;;;;;5020930;28;20152;-37
2022/10/03 08:26:07;;;;;;;6.22;3.38;;;11.50;99.90;;;;;;5013003;28;20224;-35
2022/10/03 08:29:00;;;;;;;5.45;3.30;;;11.60;99.90;;;;;;5021701;28;20028;-36
2022/10/03 08:31:48;;;;;;;5.13;3.20;;;11.70;99.90;;;;;;5018394;28;20040;-36
2022/10/03 08:34:39;;;;;;;3.70;3.05;;;11.80;99.90;;;;;;5019957;28;20061;-34
2022/10/03 08:37:46;;;;;;;6.00;3.20;;;11.80;99.90;;;;;;5020530;28;20053;-36
2022/10/03 08:40:52;;;;;;;3.83;2.90;;;11.90;99.90;;;;;;5019697;28;20084;-35
2022/10/03 08:43:26;;;;;;;4.65;3.10;;;12.00;99.90;;;;;;5020520;28;20486;-35
2022/10/03 08:46:28;;;;;;;5.22;3.08;;;12.10;99.90;;;;;;5020541;28;20106;-35
2022/10/03 08:49:02;;;;;;;4.63;2.78;;;12.10;99.90;;;;;;5020476;28;20521;-36
2022/10/03 08:51:40;;;;;;;5.75;2.58;;;12.20;99.90;;;;;;5019604;28;20034;-35
2022/10/03 08:54:09;;;;;;;5.57;2.60;;;12.20;99.90;;;;;;5020470;28;20107;-36
2022/10/03 08:57:05;;;;;;;3.70;2.80;;;12.20;99.90;;;;;;5020812;28;20485;-35
2022/10/03 08:59:55;;;;;;;5.65;2.38;;;12.30;99.90;;;;;;5018889;28;20034;-35
2022/10/03 09:03:31;;;;;;;3.42;2.33;;;12.50;99.90;;;;;;5038511;28;20453;-35
2022/10/03 09:06:23;;;;;;;4.10;2.20;;;12.50;99.90;;;;;;5101487;27;20374;-36
2022/10/03 09:09:09;;;;;;;4.45;2.10;;;12.60;99.90;;;;;;5037491;28;20516;-36
2022/10/03 09:11:40;;;;;;;4.07;2.25;;;12.70;99.90;;;;;;5096981;27;20021;-35
2022/10/03 09:14:30;;;;;;;5.47;2.60;;;12.80;99.90;;;;;;5038464;27;20029;-35
2022/10/03 09:17:06;;;;;;;5.85;2.17;;;12.90;99.90;;;;;;5094984;27;20029;-35
2022/10/03 09:20:02;;;;;;;4.40;2.03;;;13.00;99.90;;;;;;5043780;27;20427;-37
2022/10/03 09:22:48;;;;;;;4.40;2.25;;;13.00;99.90;;;;;;5080244;27;20583;-35
2022/10/03 09:25:39;;;;;;;5.25;2.15;;;13.20;99.90;;;;;;5126950;27;20030;-36
2022/10/03 09:28:41;;;;;;;3.20;2.00;;;13.20;99.90;;;;;;5079913;27;20044;-35
2022/10/03 09:31:15;;;;;;;3.35;2.05;;;13.40;99.90;;;;;;5082565;27;20448;-35
2022/10/03 09:34:11;;;;;;;4.45;2.38;;;13.40;99.90;;;;;;5051084;27;20029;-35
2022/10/03 09:37:30;;;;;;;5.38;2.00;;;13.50;99.90;;;;;;5097250;27;20439;-36
2022/10/03 09:40:32;;;;;;;3.92;2.05;;;13.60;99.90;;;;;;5018546;27;20151;-34
2022/10/03 09:43:01;;;;;;;4.97;2.30;;;13.70;99.90;;;;;;5096558;27;20049;-35
2022/10/03 09:45:35;;;;;;;4.85;2.20;;;13.80;99.90;;;;;;5044578;27;20361;-36
2022/10/03 09:48:13;;;;;;;4.78;2.03;;;13.90;99.90;;;;;;5095279;27;20380;-36
2022/10/03 09:50:59;;;;;;;3.72;2.25;;;14.00;99.90;;;;;;5044664;27;20021;-35
2022/10/03 09:53:45;;;;;;;3.53;2.17;;;14.10;99.90;;;;;;5075491;27;20087;-35
2022/10/03 09:56:48;;;;;;;3.33;2.20;;;14.20;99.90;;;;;;5129951;27;20101;-36
2022/10/03 09:59:38;;;;;;;5.25;2.42;;;14.40;99.90;;;;;;5114095;27;20478;-35
2022/10/03 10:02:13;;;;;;;3.67;1.92;;;14.50;99.90;;;;;;5070159;27;20092;-36
2022/10/03 10:04:54;;;;;;;2.58;1.55;;;14.60;99.90;;;;;;5054516;27;20333;-34
2022/10/03 10:08:01;;;;;;;3.97;1.80;;;14.60;99.90;;;;;;5082276;27;20192;-35
2022/10/03 10:10:53;;;;;;;3.15;1.50;;;14.70;99.90;;;;;;4994114;28;20026;-35
2022/10/03 10:13:51;;;;;;;3.85;1.40;;;14.80;99.90;;;;;;4974601;28;20101;-34
2022/10/03 10:16:50;;;;;;;4.95;1.40;;;14.80;99.90;;;;;;5005847;27;20045;-36
2022/10/03 10:19:29;;;;;;;4.75;1.35;;;14.90;99.90;;;;;;5062695;27;20039;-35
2022/10/03 10:22:19;;;;;;;5.40;1.67;;;14.90;99.90;;;;;;5121049;27;20083;-35
2022/10/03 10:25:03;;;;;;;3.00;1.17;;;15.10;99.90;;;;;;5076901;27;20101;-35
2022/10/03 10:27:53;;;;;;;3.22;1.10;;;15.20;99.90;;;;;;5104379;27;20029;-34
2022/10/03 10:30:44;;;;;;;3.65;1.40;;;15.30;99.90;;;;;;5100846;27;20092;-34
2022/10/03 10:33:51;;;;;;;3.85;1.77;;;15.40;99.90;;;;;;5082526;27;20090;-36
2022/10/03 10:36:47;;;;;;;3.55;1.55;;;15.50;99.90;;;;;;4991933;28;20046;-34
2022/10/03 10:39:38;;;;;;;4.25;1.77;;;15.60;99.90;;;;;;5088538;27;20082;-35
2022/10/03 10:42:27;;;;;;;3.67;1.50;;;15.70;99.90;;;;;;5025185;28;20060;-35
2022/10/03 10:45:14;;;;;;;3.42;1.30;;;15.80;99.90;;;;;;5079596;27;20433;-35
2022/10/03 10:47:51;;;;;;;1.80;1.27;;;15.80;99.90;;;;;;5041254;27;20456;-36
2022/10/03 10:50:51;;;;;;;3.35;1.27;;;15.90;99.90;;;;;;5059591;27;20137;-35
2022/10/03 10:53:54;;;;;;;2.88;1.02;;;16.10;99.90;;;;;;5107083;27;20486;-34
2022/10/03 10:56:26;;;;;;;;;;;16.20;99.90;;;;;;5108734;27;20077;-34
2022/10/03 10:59:27;;;;;;;3.40;1.40;;;16.40;99.90;;;;;;5035347;27;19961;-34
2022/10/03 11:02:13;;;;;;;2.83;1.23;;;16.50;99.90;;;;;;5006106;28;20773;-34
2022/10/03 11:05:12;;;;;;;4.38;1.50;;;16.70;99.90;;;;;;5086723;27;20031;-36
2022/10/03 11:08:27;;;;;;;3.67;1.48;;;16.80;99.90;;;;;;5004052;28;20026;-36
2022/10/03 11:11:20;;;;;;;3.53;1.42;;;17.00;99.90;;;;;;5081244;27;20098;-35
2022/10/03 11:14:24;;;;;;;4.75;1.48;;;17.00;99.90;;;;;;5033599;27;20022;-35
2022/10/03 11:17:20;;;;;;;1.80;1.00;;;17.10;99.90;;;;;;5050682;27;20620;-35
2022/10/03 11:20:19;;;;;;;2.60;1.33;;;17.10;99.90;;;;;;5069527;27;20435;-35
2022/10/03 11:23:22;;;;;;;3.85;1.45;;;17.00;99.90;;;;;;5003781;28;20064;-36
2022/10/03 11:26:24;;;;;;;3.47;0.90;;;17.00;99.90;;;;;;5085422;27;20563;-35
2022/10/03 11:29:05;;;;;;;4.03;0.95;;;16.90;99.90;;;;;;5030796;27;20484;-36
2022/10/03 11:32:12;;;;;;;2.05;1.00;;;16.90;99.90;;;;;;5080918;27;20444;-34
2022/10/03 11:34:57;;;;;;;5.53;1.40;;;16.80;99.90;;;;;;5041408;27;20121;-35
2022/10/03 11:37:36;;;;;;;1.77;0.90;;;16.90;99.90;;;;;;5054777;27;20102;-33
2022/10/03 11:40:27;;;;;;;2.58;1.00;;;16.90;99.90;;;;;;5050441;27;20470;-36
2022/10/03 11:43:15;;;;;;;2.70;0.93;;;16.90;99.90;;;;;;5041717;27;20095;-34
2022/10/03 11:45:57;;;;;;;5.15;1.40;;;17.00;99.90;;;;;;5072434;27;20030;-35
2022/10/03 11:48:39;;;;;;;3.55;1.23;;;17.00;99.90;;;;;;5026079;27;20490;-36
2022/10/03 11:51:14;;;;;;;4.45;1.23;;;17.10;99.90;;;;;;5081245;27;20027;-34
2022/10/03 11:54:09;;;;;;;3.80;0.95;;;17.10;99.90;;;;;;5022896;28;20025;-35
2022/10/03 11:56:44;;;;;;;5.40;1.10;;;17.20;99.90;;;;;;5087390;27;20034;-36
2022/10/03 11:59:34;;;;;;;3.03;1.20;;;17.30;99.90;;;;;;5022129;28;20022;-35
2022/10/03 12:02:25;;;;;;;3.13;1.13;;;17.30;99.90;;;;;;5085979;27;20139;-34
2022/10/03 12:04:56;;;;;;;4.65;1.23;;;17.40;99.90;;;;;;5025091;28;20037;-35
2022/10/03 12:10:56;;;;;;;3.00;1.20;;;17.60;99.90;;;;;;5034230;27;20036;-35
2022/10/03 12:13:43;;;;;;;4.18;1.20;;;17.70;99.90;;;;;;5063333;27;20078;-35
2022/10/03 12:16:35;;;;;;;3.15;0.82;;;17.80;99.90;;;;;;5045817;27;20034;-35
2022/10/03 12:19:14;;;;;;;1.45;0.80;;;17.90;99.90;;;;;;5043681;27;20125;-36
2022/10/03 12:22:06;;;;;;;5.30;1.02;;;17.90;99.90;;;;;;5060738;27;20039;-34
2022/10/03 12:24:36;;;;;;;4.38;1.20;;;18.00;99.90;;;;;;5029153;27;20117;-36
2022/10/03 12:27:11;;;;;;;2.80;0.80;;;18.00;99.90;;;;;;5069172;27;20028;-36
2022/10/03 12:29:44;;;;;;;1.35;0.70;;;18.00;99.90;;;;;;5032174;27;20040;-35
2022/10/03 12:32:15;;;;;;;1.52;0.63;;;18.00;99.90;;;;;;5067345;27;20035;-35
2022/10/03 12:34:56;;;;;;;2.50;0.80;;;18.00;99.90;;;;;;5037760;27;20026;-35
2022/10/03 12:37:34;;;;;;;2.30;0.85;;;18.00;99.90;;;;;;5066837;27;20772;-36
2022/10/03 12:40:05;;;;;;;1.85;0.88;;;18.00;99.90;;;;;;5030852;27;20037;-34
2022/10/03 12:42:47;;;;;;;2.60;1.00;;;18.00;99.90;;;;;;5067405;27;20046;-35
2022/10/03 12:45:42;;;;;;;4.35;0.98;;;18.00;99.90;;;;;;5028394;27;20068;-35
2022/10/03 12:48:42;;;;;;;3.50;0.95;;;18.00;99.90;;;;;;5086042;27;20658;-34
2022/10/03 12:51:34;;;;;;;4.38;1.33;;;17.90;99.90;;;;;;5001056;28;20026;-34
2022/10/03 12:54:03;;;;;;;3.85;0.77;;;17.90;99.90;;;;;;5077123;27;20041;-36
2022/10/03 12:56:41;;;;;;;2.47;1.10;;;17.90;99.90;;;;;;5021586;28;20047;-36
2022/10/03 12:59:16;;;;;;;1.25;0.70;;;18.00;99.90;;;;;;5076639;27;20022;-35
2022/10/03 13:02:22;;;;;;;2.05;0.80;;;17.90;99.90;;;;;;5110297;28;20053;-36
2022/10/03 13:05:23;;;;;;;2.50;0.82;;;18.00;99.90;;;;;;5059701;28;20075;-35
2022/10/03 13:07:55;;;;;;;2.65;1.00;;;17.90;99.90;;;;;;5103353;27;20117;-35
2022/10/03 13:10:40;;;;;;;2.88;0.80;;;17.90;99.90;;;;;;5086478;28;20472;-35
2022/10/03 13:13:33;;;;;;;2.70;0.82;;;18.00;99.90;;;;;;5097799;27;20109;-33
2022/10/03 13:16:07;;;;;;;;;;;18.00;99.90;;;;;;5107066;28;20513;-36
2022/10/03 13:18:47;;;;;;;3.67;2.00;;;18.00;99.90;;;;;;5086299;27;20725;-35
2022/10/03 13:21:18;;;;;;;2.72;1.08;;;18.00;99.90;;;;;;5108583;27;20035;-35
2022/10/03 13:23:51;;;;;;;2.25;1.15;;;18.00;99.90;;;;;;5086992;27;20025;-34
2022/10/03 13:26:35;;;;;;;2.20;1.05;;;18.00;99.90;;;;;;5103763;28;20015;-40
2022/10/03 13:29:41;;;;;;;5.63;1.15;;;18.00;99.90;;;;;;5080593;27;20122;-35
2022/10/03 13:32:20;;;;;;;2.33;1.00;;;18.00;99.90;;;;;;5012541;28;20122;-35
2022/10/03 13:35:57;;;;;;;3.97;1.08;;;18.00;99.90;;;;;;5088970;28;20156;-36
2022/10/03 13:38:06;;;;;;;2.10;1.17;;;18.00;99.90;;;;;;5021049;28;20069;-34
2022/10/03 13:40:36;;;;;;;2.67;1.25;;;18.00;99.90;;;;;;5075109;28;20026;-35
2022/10/03 13:43:12;;;;;;;1.92;0.80;;;18.10;99.90;;;;;;5022031;28;20053;-34
2022/10/03 13:45:43;;;;;;;3.03;0.90;;;18.00;99.90;;;;;;5066042;27;20023;-35
2022/10/03 13:48:17;;;;;;;3.30;0.80;;;18.00;99.90;;;;;;5125032;27;20475;-35
2022/10/03 13:51:01;;;;;;;2.67;1.00;;;18.00;99.90;;;;;;5065298;27;20027;-34
2022/10/03 13:53:51;;;;;;;3.13;0.90;;;18.00;99.90;;;;;;5125590;27;20136;-36
2022/10/03 13:56:44;;;;;;;3.03;1.33;;;18.20;99.90;;;;;;5080833;27;20040;-35
2022/10/03 13:59:31;;;;;;;2.92;0.90;;;18.20;99.90;;;;;;5031029;27;20108;-35
2022/10/03 14:02:26;;;;;;;4.95;2.00;;;18.40;99.90;;;;;;5119597;27;20135;-35
2022/10/03 14:05:06;;;;;;;2.03;1.25;;;18.50;99.90;;;;;;5099746;27;20110;-35
2022/10/03 14:07:49;;;;;;;3.10;1.00;;;18.60;99.90;;;;;;5096512;27;20023;-34
2022/10/03 14:10:27;;;;;;;3.42;1.10;;;18.60;99.90;;;;;;5089905;27;20392;-35
2022/10/03 14:13:02;;;;;;;3.30;1.23;;;18.60;99.90;;;;;;5110071;27;20023;-35
2022/10/03 14:15:52;;;;;;;2.63;1.00;;;18.60;99.90;;;;;;5087285;27;20067;-36
2022/10/03 14:18:50;;;;;;;4.10;0.90;;;18.70;99.90;;;;;;5118786;27;20066;-35
2022/10/03 14:21:38;;;;;;;2.58;1.10;;;18.60;99.90;;;;;;5061877;27;20029;-35
2022/10/03 14:24:09;;;;;;;2.00;0.90;;;18.60;99.90;;;;;;5127886;27;20031;-35
2022/10/03 14:26:42;;;;;;;1.88;0.73;;;18.60;99.90;;;;;;5062682;27;20026;-37
2022/10/03 14:29:22;;;;;;;2.33;0.70;;;18.60;99.90;;;;;;5126917;27;20490;-36
2022/10/03 14:31:56;;;;;;;4.65;1.30;;;18.50;99.90;;;;;;5062230;27;20041;-35
2022/10/03 14:34:40;;;;;;;2.53;0.75;;;18.50;99.90;;;;;;5127565;27;20031;-36
2022/10/03 14:37:11;;;;;;;2.63;0.65;;;18.50;99.90;;;;;;5061672;27;20360;-34
2022/10/03 14:39:55;;;;;;;3.80;1.10;;;18.50;99.90;;;;;;5128261;27;20087;-35
2022/10/03 14:42:52;;;;;;;1.63;0.65;;;18.40;99.90;;;;;;5062137;27;20544;-35